Time;durP1;ratioP1;P1;durP2;ratioP2;P2;SDS_P1;SDS_P2;PMS_P1;PMS_P2;Temp;Humidity;BMP_temperature;BMP_pressure;BME280_temperature;BME280_humidity;BME280_pressure;Samples;Min_cycle;Max_cycle;Signal;HPM_P1;HPM_P2
2022/01/27 00:01:19;;;;;;;;;;;21.70;47.90;;;;;;5086939;28;20410;-70
2022/01/27 00:04:00;;;;;;;;;;;21.70;47.90;;;;;;5086392;28;19920;-70
2022/01/27 00:06:25;;;;;;;;;;;21.70;48.00;;;;;;5092556;28;19950;-69
2022/01/27 00:08:57;;;;;;;;;;;21.70;48.00;;;;;;5082793;28;19916;-70
2022/01/27 00:11:22;;;;;;;;;;;21.60;48.50;;;;;;5085326;28;20084;-71
2022/01/27 00:13:55;;;;;;;;;;;21.60;48.00;;;;;;5088288;28;20063;-70
2022/01/27 00:16:27;;;;;;;;;;;21.60;48.00;;;;;;5087179;28;19912;-72
2022/01/27 00:18:53;;;;;;;;;;;21.60;48.00;;;;;;5088718;28;20239;-70
2022/01/27 00:21:20;;;;;;;;;;;21.60;48.00;;;;;;5082796;28;19927;-68
2022/01/27 00:23:45;;;;;;;;;;;21.60;48.00;;;;;;5085515;28;20042;-70
2022/01/27 00:26:12;;;;;;;;;;;21.50;48.00;;;;;;5086996;28;20057;-70
2022/01/27 00:28:38;;;;;;;;;;;21.50;48.00;;;;;;5082344;28;19962;-70
2022/01/27 00:31:03;;;;;;;;;;;21.50;48.00;;;;;;5087654;28;19923;-72
2022/01/27 00:33:29;;;;;;;;;;;21.50;48.10;;;;;;5091134;28;20421;-71
2022/01/27 00:35:54;;;;;;;;;;;21.50;48.10;;;;;;5086429;28;19969;-72
2022/01/27 00:38:20;;;;;;;;;;;21.50;48.10;;;;;;5085811;28;19916;-70
2022/01/27 00:40:46;;;;;;;;;;;21.40;48.00;;;;;;5092106;28;19916;-70
2022/01/27 00:43:11;;;;;;;;;;;21.40;48.10;;;;;;5082645;28;20003;-70
2022/01/27 00:45:37;;;;;;;;;;;21.40;48.10;;;;;;5085437;28;19920;-71
2022/01/27 00:48:04;;;;;;;;;;;21.40;48.10;;;;;;5088815;28;19918;-70
2022/01/27 00:50:32;;;;;;;;;;;21.40;48.10;;;;;;5090866;28;19946;-70
2022/01/27 00:53:00;;;;;;;;;;;21.40;48.10;;;;;;5090568;28;19915;-70
2022/01/27 00:55:28;;;;;;;;;;;21.40;48.10;;;;;;5086023;28;19924;-69
2022/01/27 01:00:36;;;;;;;;;;;21.40;48.10;;;;;;5078847;28;19912;-72
2022/01/27 01:03:14;;;;;;;;;;;21.30;48.10;;;;;;5089132;28;19957;-70
2022/01/27 01:06:07;;;;;;;;;;;21.30;48.10;;;;;;5084889;28;19977;-70
2022/01/27 01:16:23;;;;;;;;;;;21.30;48.10;;;;;;5083993;28;19955;-71
2022/01/27 01:19:02;;;;;;;;;;;21.20;48.10;;;;;;5087158;28;19927;-70
2022/01/27 01:21:56;;;;;;;;;;;21.20;48.10;;;;;;5088929;28;19931;-69
2022/01/27 01:32:34;;;;;;;;;;;21.20;48.20;;;;;;5082844;28;20371;-69
2022/01/27 01:35:04;;;;;;;;;;;21.20;48.20;;;;;;5086876;28;19919;-71
2022/01/27 01:37:30;;;;;;;;;;;21.20;48.20;;;;;;5087223;28;19912;-71
2022/01/27 01:39:55;;;;;;;;;;;21.20;48.20;;;;;;5088729;28;20411;-71
2022/01/27 01:42:21;;;;;;;;;;;21.10;48.20;;;;;;5077835;28;19916;-71
2022/01/27 01:44:48;;;;;;;;;;;21.10;48.20;;;;;;5087420;28;19924;-69
2022/01/27 01:47:13;;;;;;;;;;;21.10;48.20;;;;;;5089762;28;19912;-69
2022/01/27 01:49:39;;;;;;;;;;;21.10;48.20;;;;;;5085904;28;19916;-69
2022/01/27 01:52:06;;;;;;;;;;;21.10;48.20;;;;;;5086148;28;19920;-70
2022/01/27 01:54:32;;;;;;;;;;;21.10;48.20;;;;;;5088084;28;19919;-71
2022/01/27 01:56:57;;;;;;;;;;;21.10;48.20;;;;;;5085270;28;19919;-70
2022/01/27 01:59:23;;;;;;;;;;;21.10;48.30;;;;;;5090240;28;19916;-69
2022/01/27 02:01:48;;;;;;;;;;;21.00;48.20;;;;;;5084441;28;19912;-69
2022/01/27 02:04:14;;;;;;;;;;;21.10;48.30;;;;;;5085748;28;19912;-71
2022/01/27 02:06:53;;;;;;;;;;;21.00;48.20;;;;;;5090600;28;19919;-71
2022/01/27 02:20:00;;;;;;;;;;;21.00;48.30;;;;;;5086249;28;20707;-71
2022/01/27 02:22:25;;;;;;;;;;;21.00;48.30;;;;;;5088298;28;19916;-69
2022/01/27 02:24:52;;;;;;;;;;;20.90;48.20;;;;;;5086076;28;19961;-71
2022/01/27 02:27:18;;;;;;;;;;;20.90;48.30;;;;;;5083597;28;20462;-69
2022/01/27 02:29:44;;;;;;;;;;;20.90;48.30;;;;;;5083460;28;19924;-71
2022/01/27 02:32:11;;;;;;;;;;;20.90;48.30;;;;;;5088648;28;19916;-71
2022/01/27 02:34:37;;;;;;;;;;;20.90;48.30;;;;;;5082583;28;19919;-68
2022/01/27 02:37:03;;;;;;;;;;;20.90;48.30;;;;;;5081040;28;19912;-70
2022/01/27 02:39:28;;;;;;;;;;;20.90;48.30;;;;;;5087558;28;19920;-68
2022/01/27 02:42:06;;;;;;;;;;;20.90;48.30;;;;;;5089383;28;19983;-70
2022/01/27 02:44:31;;;;;;;;;;;20.90;48.30;;;;;;5086403;28;20004;-69
2022/01/27 02:46:57;;;;;;;;;;;20.90;48.40;;;;;;5082614;28;19912;-68
2022/01/27 02:49:22;;;;;;;;;;;20.80;48.30;;;;;;5085703;28;20359;-70
2022/01/27 02:51:48;;;;;;;;;;;20.80;48.30;;;;;;5090819;28;19916;-71
2022/01/27 02:54:14;;;;;;;;;;;20.80;48.40;;;;;;5084450;28;19923;-69
2022/01/27 02:56:44;;;;;;;;;;;20.80;48.40;;;;;;5088587;28;20462;-71
2022/01/27 02:59:10;;;;;;;;;;;20.80;48.40;;;;;;5080390;28;20006;-71
2022/01/27 03:01:35;;;;;;;;;;;20.80;48.40;;;;;;5086706;28;20015;-68
2022/01/27 03:04:01;;;;;;;;;;;20.80;48.40;;;;;;5084621;28;19954;-70
2022/01/27 03:06:26;;;;;;;;;;;20.80;48.40;;;;;;5085499;28;19938;-69
2022/01/27 03:08:52;;;;;;;;;;;20.80;48.40;;;;;;5077679;28;19916;-71
2022/01/27 03:11:32;;;;;;;;;;;20.80;48.40;;;;;;5082613;28;19920;-71
2022/01/27 03:13:57;;;;;;;;;;;20.80;48.40;;;;;;5084043;28;19923;-71
2022/01/27 03:16:23;;;;;;;;;;;20.80;48.90;;;;;;5085129;28;20368;-70
2022/01/27 03:18:48;;;;;;;;;;;20.80;48.40;;;;;;5086026;28;19958;-69
2022/01/27 03:21:15;;;;;;;;;;;20.80;48.40;;;;;;5082596;28;20412;-70
2022/01/27 03:23:41;;;;;;;;;;;20.80;48.40;;;;;;5082201;28;20020;-70
2022/01/27 03:26:06;;;;;;;;;;;20.80;48.40;;;;;;5085223;28;20015;-69
2022/01/27 03:28:32;;;;;;;;;;;20.70;48.40;;;;;;5083851;28;20344;-71
2022/01/27 03:30:58;;;;;;;;;;;20.70;48.40;;;;;;5087294;28;19912;-71
2022/01/27 03:33:23;;;;;;;;;;;20.70;48.40;;;;;;5092938;28;19919;-68
2022/01/27 03:35:49;;;;;;;;;;;20.70;48.40;;;;;;5094215;28;19920;-69
2022/01/27 03:38:14;;;;;;;;;;;20.70;48.40;;;;;;5089703;28;19912;-71
2022/01/27 03:40:40;;;;;;;;;;;20.70;48.40;;;;;;5088270;28;19916;-70
2022/01/27 03:43:09;;;;;;;;;;;20.70;48.40;;;;;;5084026;28;19939;-71
2022/01/27 03:45:34;;;;;;;;;;;20.70;48.40;;;;;;5085351;28;19912;-70
2022/01/27 03:48:00;;;;;;;;;;;20.70;48.40;;;;;;5094190;27;20426;-70
2022/01/27 03:50:26;;;;;;;;;;;20.70;48.50;;;;;;5088061;28;19984;-70
2022/01/27 03:52:51;;;;;;;;;;;20.70;48.50;;;;;;5086921;28;20028;-69
2022/01/27 03:55:17;;;;;;;;;;;20.70;48.50;;;;;;5085838;28;20450;-71
2022/01/27 03:57:42;;;;;;;;;;;20.70;48.50;;;;;;5087789;28;19916;-69
2022/01/27 04:00:09;;;;;;;;;;;20.70;48.50;;;;;;5085527;28;19979;-70
2022/01/27 04:02:38;;;;;;;;;;;20.70;48.50;;;;;;5088448;28;19912;-69
2022/01/27 04:05:04;;;;;;;;;;;20.60;48.50;;;;;;5085975;28;19912;-70
2022/01/27 04:07:29;;;;;;;;;;;20.60;48.50;;;;;;5095468;28;19916;-69
2022/01/27 04:09:55;;;;;;;;;;;20.60;48.50;;;;;;5084053;28;19912;-69
2022/01/27 04:12:20;;;;;;;;;;;20.60;48.50;;;;;;5090378;28;19916;-68
2022/01/27 04:14:46;;;;;;;;;;;20.60;48.50;;;;;;5083434;28;20030;-69
2022/01/27 04:17:11;;;;;;;;;;;20.60;48.50;;;;;;5094425;28;20352;-70
2022/01/27 04:19:37;;;;;;;;;;;20.60;48.50;;;;;;5087358;28;19920;-68
2022/01/27 04:22:03;;;;;;;;;;;20.60;48.50;;;;;;5090245;28;19912;-70
2022/01/27 04:24:28;;;;;;;;;;;20.60;48.50;;;;;;5081306;28;19939;-68
2022/01/27 04:27:03;;;;;;;;;;;20.60;48.60;;;;;;5090627;28;20341;-70
2022/01/27 04:29:29;;;;;;;;;;;20.60;48.50;;;;;;5089633;28;19916;-68
2022/01/27 04:31:55;;;;;;;;;;;20.60;48.60;;;;;;5083251;28;20018;-70
2022/01/27 04:34:21;;;;;;;;;;;20.50;48.50;;;;;;5094560;28;20335;-69
2022/01/27 04:36:46;;;;;;;;;;;20.50;48.60;;;;;;5081661;28;20360;-70
2022/01/27 04:39:29;;;;;;;;;;;20.50;48.60;;;;;;5088286;28;20405;-71
2022/01/27 04:42:11;;;;;;;;;;;20.50;48.60;;;;;;5088001;28;20275;-69
2022/01/27 04:44:44;;;;;;;;;;;20.50;48.70;;;;;;5086673;28;19916;-69
2022/01/27 04:47:17;;;;;;;;;;;20.50;48.70;;;;;;5084930;28;19916;-68
2022/01/27 04:49:43;;;;;;;;;;;20.50;48.70;;;;;;5087367;28;19920;-70
2022/01/27 04:52:09;;;;;;;;;;;20.50;48.80;;;;;;5086113;28;19999;-70
2022/01/27 04:54:52;;;;;;;;;;;20.50;48.80;;;;;;5085608;28;20093;-71
2022/01/27 04:57:17;;;;;;;;;;;20.50;48.80;;;;;;5080568;28;20483;-69
2022/01/27 04:59:44;;;;;;;;;;;20.40;48.80;;;;;;5085414;28;19934;-69
2022/01/27 05:02:19;;;;;;;;;;;20.40;48.70;;;;;;5082956;28;20380;-71
2022/01/27 05:04:49;;;;;;;;;;;20.40;48.70;;;;;;5088380;28;20371;-69
2022/01/27 05:07:14;;;;;;;;;;;20.40;48.80;;;;;;5081456;28;19924;-71
2022/01/27 05:09:49;;;;;;;;;;;20.40;48.80;;;;;;5085178;28;19969;-68
2022/01/27 05:12:24;;;;;;;;;;;20.40;48.90;;;;;;5089807;28;19916;-71
2022/01/27 05:14:51;;;;;;;;;;;20.40;48.90;;;;;;5082492;28;19965;-69
2022/01/27 05:17:18;;;;;;;;;;;20.40;48.90;;;;;;5082973;28;19920;-71
2022/01/27 05:19:47;;;;;;;;;;;20.40;49.00;;;;;;5085295;28;19969;-70
2022/01/27 05:22:13;;;;;;;;;;;20.40;49.00;;;;;;5084186;28;19920;-71
2022/01/27 05:24:38;;;;;;;;;;;20.40;48.90;;;;;;5084257;28;20600;-69
2022/01/27 05:27:04;;;;;;;;;;;20.40;48.90;;;;;;5085823;28;20338;-70
2022/01/27 05:29:29;;;;;;;;;;;20.40;48.90;;;;;;5086966;28;19912;-70
2022/01/27 05:31:55;;;;;;;;;;;20.40;48.90;;;;;;5091302;28;20295;-69
2022/01/27 05:34:20;;;;;;;;;;;20.40;48.90;;;;;;5088812;28;19962;-70
2022/01/27 05:36:46;;;;;;;;;;;20.40;49.00;;;;;;5090684;28;20360;-71
2022/01/27 05:39:12;;;;;;;;;;;20.40;48.90;;;;;;5087121;28;19946;-70
2022/01/27 05:41:38;;;;;;;;;;;20.40;49.00;;;;;;5088403;28;19912;-70
2022/01/27 05:44:04;;;;;;;;;;;20.40;49.00;;;;;;5082239;28;19941;-71
2022/01/27 05:46:30;;;;;;;;;;;20.30;48.90;;;;;;5085889;28;20007;-71
2022/01/27 05:48:55;;;;;;;;;;;20.40;49.00;;;;;;5086019;28;20359;-71
2022/01/27 05:51:21;;;;;;;;;;;20.40;49.00;;;;;;5089081;28;20019;-69
2022/01/27 05:53:46;;;;;;;;;;;20.30;49.30;;;;;;5083909;28;19917;-71
2022/01/27 05:56:12;;;;;;;;;;;20.30;49.00;;;;;;5091665;28;19922;-68
2022/01/27 05:58:37;;;;;;;;;;;20.30;49.00;;;;;;5077497;28;19950;-70
2022/01/27 06:01:03;;;;;;;;;;;20.30;49.00;;;;;;5082425;28;20029;-70
2022/01/27 06:03:29;;;;;;;;;;;20.30;49.00;;;;;;5085587;28;19912;-69
2022/01/27 06:05:54;;;;;;;;;;;20.30;49.10;;;;;;5085219;28;19920;-69
2022/01/27 06:08:20;;;;;;;;;;;20.30;49.10;;;;;;5088147;28;20299;-70
2022/01/27 06:10:45;;;;;;;;;;;20.30;49.10;;;;;;5083736;28;19920;-69
2022/01/27 06:13:11;;;;;;;;;;;20.30;49.10;;;;;;5084039;28;19926;-70
2022/01/27 06:15:36;;;;;;;;;;;20.30;49.10;;;;;;5085411;28;20003;-69
2022/01/27 06:18:02;;;;;;;;;;;20.30;49.10;;;;;;5088366;28;20281;-69
2022/01/27 06:20:32;;;;;;;;;;;20.30;49.10;;;;;;5088397;28;19937;-70
2022/01/27 06:22:57;;;;;;;;;;;20.30;49.20;;;;;;5083281;28;20002;-69
2022/01/27 06:25:23;;;;;;;;;;;20.30;49.20;;;;;;5088958;28;20019;-71
2022/01/27 06:27:49;;;;;;;;;;;20.30;49.20;;;;;;5084951;28;20014;-69
2022/01/27 06:30:14;;;;;;;;;;;20.30;49.20;;;;;;5087981;28;19912;-68
2022/01/27 06:32:41;;;;;;;;;;;20.30;49.20;;;;;;5081904;28;19916;-70
2022/01/27 06:35:06;;;;;;;;;;;20.30;49.30;;;;;;5085032;28;19946;-70
2022/01/27 06:37:32;;;;;;;;;;;20.30;49.30;;;;;;5084588;28;19916;-69
2022/01/27 06:39:58;;;;;;;;;;;20.30;49.30;;;;;;5082029;28;20449;-69
2022/01/27 06:42:24;;;;;;;;;;;20.30;49.30;;;;;;5078868;28;19916;-69
2022/01/27 06:44:50;;;;;;;;;;;20.30;49.30;;;;;;5078127;28;20001;-70
2022/01/27 06:47:15;;;;;;;;;;;20.30;49.60;;;;;;5074650;28;20027;-72
2022/01/27 06:49:44;;;;;;;;;;;20.30;50.60;;;;;;5080836;28;19924;-70
2022/01/27 06:52:09;;;;;;;;;;;20.50;50.60;;;;;;5081900;28;19912;-71
2022/01/27 06:54:35;;;;;;;;;;;20.70;50.70;;;;;;5080916;28;19928;-72
2022/01/27 06:57:01;;;;;;;;;;;20.90;50.80;;;;;;5076671;28;20316;-72
2022/01/27 06:59:27;;;;;;;;;;;21.10;50.80;;;;;;5074716;28;19938;-73
2022/01/27 07:01:52;;;;;;;;;;;21.30;50.70;;;;;;5080567;28;19912;-72
2022/01/27 07:04:18;;;;;;;;;;;21.40;50.40;;;;;;5081865;28;19915;-72
2022/01/27 07:06:44;;;;;;;;;;;21.50;50.40;;;;;;5082761;28;20111;-71
2022/01/27 07:09:09;;;;;;;;;;;21.70;50.50;;;;;;5080944;28;20314;-68
2022/01/27 07:11:35;;;;;;;;;;;21.80;50.50;;;;;;5085208;28;19908;-72
2022/01/27 07:14:00;;;;;;;;;;;21.90;50.50;;;;;;5078118;28;19916;-68
2022/01/27 07:16:26;;;;;;;;;;;22.00;50.30;;;;;;5083074;28;19920;-68
2022/01/27 07:18:52;;;;;;;;;;;22.00;50.10;;;;;;5082448;28;20296;-68
2022/01/27 07:21:21;;;;;;;;;;;22.00;50.40;;;;;;5081370;28;19923;-68
2022/01/27 07:23:46;;;;;;;;;;;22.20;50.30;;;;;;5084791;28;19932;-69
2022/01/27 07:26:13;;;;;;;;;;;22.20;50.10;;;;;;5083577;28;19938;-71
2022/01/27 07:28:39;;;;;;;;;;;22.20;50.00;;;;;;5077974;28;19931;-71
2022/01/27 07:31:04;;;;;;;;;;;22.10;50.00;;;;;;5084372;28;19916;-71
2022/01/27 07:33:30;;;;;;;;;;;22.10;50.20;;;;;;5083779;28;19922;-70
2022/01/27 07:35:55;;;;;;;;;;;22.10;50.30;;;;;;5081856;28;19923;-70
2022/01/27 07:38:23;;;;;;;;;;;22.10;50.30;;;;;;5075700;28;19923;-70
2022/01/27 07:40:49;;;;;;;;;;;22.10;50.40;;;;;;5083463;28;19927;-72
2022/01/27 07:43:15;;;;;;;;;;;22.10;50.50;;;;;;5077646;28;19917;-70
2022/01/27 07:45:41;;;;;;;;;;;22.10;50.50;;;;;;5082916;28;19916;-69
2022/01/27 07:48:06;;;;;;;;;;;22.10;51.00;;;;;;5080834;28;19916;-72
2022/01/27 07:50:32;;;;;;;;;;;22.20;50.70;;;;;;5077267;28;19995;-71
2022/01/27 07:52:57;;;;;;;;;;;22.20;50.60;;;;;;5082485;28;20003;-66
2022/01/27 07:55:23;;;;;;;;;;;22.20;51.10;;;;;;5076582;28;20121;-69
2022/01/27 07:57:48;;;;;;;;;;;22.30;51.00;;;;;;5077237;28;19915;-69
2022/01/27 08:00:14;;;;;;;;;;;22.30;51.40;;;;;;5078218;28;20038;-72
2022/01/27 08:02:40;;;;;;;;;;;22.30;51.20;;;;;;5079336;28;19916;-69
2022/01/27 08:05:06;;;;;;;;;;;22.40;51.30;;;;;;5081765;28;19954;-72
2022/01/27 08:07:32;;;;;;;;;;;22.40;51.20;;;;;;5084340;28;20376;-71
2022/01/27 08:09:57;;;;;;;;;;;22.40;51.10;;;;;;5080558;28;20368;-69
2022/01/27 08:12:23;;;;;;;;;;;22.50;51.20;;;;;;5076956;28;20437;-71
2022/01/27 08:14:48;;;;;;;;;;;22.50;51.20;;;;;;5080752;28;19999;-69
2022/01/27 08:17:16;;;;;;;;;;;22.50;51.10;;;;;;5082869;28;20287;-70
2022/01/27 08:19:42;;;;;;;;;;;22.50;51.30;;;;;;5084188;28;20387;-73
2022/01/27 08:22:08;;;;;;;;;;;22.50;51.20;;;;;;5085424;28;19912;-73
2022/01/27 08:24:34;;;;;;;;;;;22.50;51.40;;;;;;5081597;28;20006;-70
2022/01/27 08:27:01;;;;;;;;;;;22.60;51.40;;;;;;5084281;28;20003;-68
2022/01/27 08:29:36;;;;;;;;;;;22.60;51.30;;;;;;5084250;28;19920;-69
2022/01/27 08:32:03;;;;;;;;;;;22.60;51.40;;;;;;5085428;28;19997;-69
2022/01/27 08:34:32;;;;;;;;;;;22.60;51.40;;;;;;5084190;28;19930;-70
2022/01/27 08:36:58;;;;;;;;;;;22.70;51.30;;;;;;5085848;28;19920;-70
2022/01/27 08:39:24;;;;;;;;;;;22.70;49.70;;;;;;5087139;28;19924;-70
2022/01/27 08:41:50;;;;;;;;;;;22.70;48.30;;;;;;5087768;28;19919;-72
2022/01/27 08:44:15;;;;;;;;;;;22.60;47.90;;;;;;5085278;28;19952;-65
2022/01/27 08:46:41;;;;;;;;;;;22.60;48.10;;;;;;5084697;28;19912;-69
2022/01/27 08:49:07;;;;;;;;;;;22.60;48.70;;;;;;5078961;28;20016;-73
2022/01/27 08:51:32;;;;;;;;;;;22.60;48.30;;;;;;5084315;28;19920;-70
2022/01/27 08:53:58;;;;;;;;;;;22.70;48.90;;;;;;5083675;28;20022;-74
2022/01/27 08:56:23;;;;;;;;;;;22.60;49.10;;;;;;5084955;28;20325;-72
2022/01/27 08:58:49;;;;;;;;;;;22.70;48.90;;;;;;5080629;28;19912;-70
2022/01/27 09:01:15;;;;;;;;;;;22.70;48.60;;;;;;5085055;28;19920;-73
2022/01/27 09:03:41;;;;;;;;;;;22.70;49.40;;;;;;5082776;28;20086;-72
2022/01/27 09:06:07;;;;;;;;;;;22.80;48.80;;;;;;5084560;28;19912;-69
2022/01/27 09:08:32;;;;;;;;;;;22.80;48.60;;;;;;5086353;28;19918;-70
2022/01/27 09:10:58;;;;;;;;;;;22.80;48.60;;;;;;5085497;28;20028;-70
2022/01/27 09:13:23;;;;;;;;;;;22.80;48.50;;;;;;5086849;28;19913;-69
2022/01/27 09:15:50;;;;;;;;;;;22.80;48.50;;;;;;5082100;28;19923;-74
2022/01/27 09:18:15;;;;;;;;;;;22.80;48.40;;;;;;5085293;28;19999;-73
2022/01/27 09:20:42;;;;;;;;;;;22.80;48.60;;;;;;5087155;28;19980;-71
2022/01/27 09:23:13;;;;;;;;;;;22.80;48.90;;;;;;5083366;28;19976;-71
2022/01/27 09:25:44;;;;;;;;;;;22.80;48.70;;;;;;5084059;28;19943;-70
2022/01/27 09:28:11;;;;;;;;;;;22.90;48.70;;;;;;5085817;28;19988;-68
2022/01/27 09:30:36;;;;;;;;;;;22.90;48.80;;;;;;5081188;28;19973;-72
2022/01/27 09:33:02;;;;;;;;;;;22.90;49.00;;;;;;5088764;28;20287;-67
2022/01/27 09:35:29;;;;;;;;;;;22.90;49.00;;;;;;5087351;28;20367;-69
2022/01/27 09:37:56;;;;;;;;;;;22.90;49.40;;;;;;5084391;28;19995;-68
2022/01/27 09:40:21;;;;;;;;;;;22.90;48.70;;;;;;5084147;28;20040;-71
2022/01/27 09:42:51;;;;;;;;;;;22.90;48.70;;;;;;5082614;28;19944;-69
2022/01/27 09:45:16;;;;;;;;;;;22.90;48.80;;;;;;5081104;28;19924;-68
2022/01/27 09:47:43;;;;;;;;;;;23.00;48.60;;;;;;5078347;28;20298;-69
2022/01/27 09:52:42;;;;;;;;;;;23.00;49.80;;;;;;5080762;28;20212;-68
2022/01/27 09:55:08;;;;;;;;;;;23.00;49.60;;;;;;5083511;28;22079;-73
2022/01/27 09:57:33;;;;;;;;;;;23.10;49.90;;;;;;5082066;28;19958;-70
2022/01/27 09:59:59;;;;;;;;;;;23.10;49.70;;;;;;5082485;28;19942;-70
2022/01/27 10:02:27;;;;;;;;;;;23.10;49.50;;;;;;5086505;28;19920;-70
2022/01/27 10:04:57;;;;;;;;;;;23.20;48.80;;;;;;5085760;28;19920;-72
2022/01/27 10:07:32;;;;;;;;;;;23.20;48.80;;;;;;5084447;28;19916;-70
2022/01/27 10:10:06;;;;;;;;;;;23.20;49.40;;;;;;5083523;28;19912;-70
2022/01/27 10:12:35;;;;;;;;;;;23.20;48.80;;;;;;5079147;28;19946;-68
2022/01/27 10:15:04;;;;;;;;;;;23.20;48.60;;;;;;5080989;28;20011;-72
2022/01/27 10:17:31;;;;;;;;;;;23.20;49.60;;;;;;5078997;28;19912;-69
2022/01/27 10:19:57;;;;;;;;;;;23.20;48.80;;;;;;5085152;28;19939;-71
2022/01/27 10:22:23;;;;;;;;;;;23.30;49.10;;;;;;5082616;28;19920;-71
2022/01/27 10:24:58;;;;;;;;;;;23.30;49.90;;;;;;5085837;28;19929;-72
2022/01/27 10:27:46;;;;;;;;;;;23.30;49.00;;;;;;5084683;28;19912;-73
2022/01/27 10:32:54;;;;;;;;;;;23.30;48.40;;;;;;5082612;28;20007;-70
2022/01/27 10:35:21;;;;;;;;;;;23.30;48.80;;;;;;5085208;28;19958;-71
2022/01/27 10:37:54;;;;;;;;;;;23.40;48.60;;;;;;5085154;28;20410;-70
2022/01/27 10:40:20;;;;;;;;;;;23.40;48.60;;;;;;5075095;28;19947;-71
2022/01/27 10:42:56;;;;;;;;;;;23.40;48.40;;;;;;5080641;28;20419;-75
2022/01/27 10:45:22;;;;;;;;;;;23.40;48.10;;;;;;5080703;28;19968;-73
2022/01/27 10:47:48;;;;;;;;;;;23.40;47.70;;;;;;5081305;28;20334;-73
2022/01/27 10:50:14;;;;;;;;;;;23.40;47.00;;;;;;5080604;28;20030;-72
2022/01/27 10:52:49;;;;;;;;;;;23.40;46.50;;;;;;5079263;28;19912;-74
2022/01/27 10:55:17;;;;;;;;;;;23.30;46.20;;;;;;5079824;28;19924;-73
2022/01/27 10:57:49;;;;;;;;;;;23.30;46.10;;;;;;5078161;28;19919;-74
2022/01/27 11:00:16;;;;;;;;;;;23.20;46.00;;;;;;5076933;28;20049;-74
2022/01/27 11:02:52;;;;;;;;;;;23.20;46.00;;;;;;5085380;28;19958;-71
2022/01/27 11:05:22;;;;;;;;;;;23.20;46.00;;;;;;5082084;28;19920;-72
2022/01/27 11:07:48;;;;;;;;;;;23.20;46.10;;;;;;5076842;28;19977;-73
2022/01/27 11:10:17;;;;;;;;;;;23.20;46.10;;;;;;5083717;28;19920;-73
2022/01/27 11:12:44;;;;;;;;;;;23.10;46.00;;;;;;5078923;28;19919;-73
2022/01/27 11:15:16;;;;;;;;;;;23.10;46.10;;;;;;5081300;28;19973;-74
2022/01/27 11:17:43;;;;;;;;;;;23.10;46.10;;;;;;5082350;28;19922;-71
2022/01/27 11:23:25;;;;;;;;;;;23.10;46.20;;;;;;5079148;28;19912;-73
2022/01/27 11:25:53;;;;;;;;;;;23.00;46.30;;;;;;5083309;28;19913;-72
2022/01/27 11:28:20;;;;;;;;;;;23.00;46.30;;;;;;5080635;28;19916;-71
2022/01/27 11:30:59;;;;;;;;;;;23.00;42.60;;;;;;5085985;28;19916;-73
2022/01/27 11:33:30;;;;;;;;;;;22.80;37.90;;;;;;5082734;28;19946;-71
2022/01/27 11:36:09;;;;;;;;;;;22.70;36.40;;;;;;5082312;28;19931;-70
2022/01/27 11:38:34;;;;;;;;;;;22.50;36.30;;;;;;5080527;28;19920;-68
2022/01/27 11:41:00;;;;;;;;;;;22.40;35.10;;;;;;5083876;28;19977;-69
2022/01/27 11:43:33;;;;;;;;;;;22.30;34.90;;;;;;5080119;28;19919;-74
2022/01/27 11:46:11;;;;;;;;;;;22.20;34.70;;;;;;5069168;28;19913;-73
2022/01/27 11:48:36;;;;;;;;;;;22.20;35.60;;;;;;5082394;28;19931;-70
2022/01/27 11:51:12;;;;;;;;;;;22.10;36.40;;;;;;5077341;28;19998;-71
2022/01/27 11:53:45;;;;;;;;;;;22.10;36.40;;;;;;5101505;28;20509;-68
2022/01/27 11:56:37;;;;;;;;;;;22.10;36.70;;;;;;5081806;28;19917;-69
2022/01/27 11:59:05;;;;;;;;;;;22.10;37.40;;;;;;5082552;28;19923;-70
2022/01/27 12:01:31;;;;;;;;;;;22.10;36.60;;;;;;5085580;28;19969;-67
2022/01/27 12:04:04;;;;;;;;;;;22.10;36.70;;;;;;5082126;28;19931;-70
2022/01/27 12:06:32;;;;;;;;;;;22.00;35.00;;;;;;5084512;28;19927;-70
2022/01/27 12:09:30;;;;;;;;;;;21.90;34.40;;;;;;5082196;28;20337;-68
2022/01/27 12:11:57;;;;;;;;;;;21.80;34.40;;;;;;5084050;28;20237;-71
2022/01/27 12:14:30;;;;;;;;;;;21.70;35.30;;;;;;5081549;28;20387;-71
2022/01/27 12:17:08;;;;;;;;;;;21.80;38.20;;;;;;5088990;28;19927;-69
2022/01/27 12:19:46;;;;;;;;;;;21.90;39.70;;;;;;5086354;28;19937;-70
2022/01/27 12:22:14;;;;;;;;;;;22.00;41.10;;;;;;5089750;28;19927;-67
2022/01/27 12:24:49;;;;;;;;;;;22.00;41.80;;;;;;5087446;28;19916;-69
2022/01/27 12:27:18;;;;;;;;;;;22.10;42.40;;;;;;5082814;28;19916;-70
2022/01/27 12:29:48;;;;;;;;;;;22.10;42.60;;;;;;5083106;28;19956;-69
2022/01/27 12:32:16;;;;;;;;;;;22.20;42.90;;;;;;5087336;28;19959;-68
2022/01/27 12:34:49;;;;;;;;;;;22.20;43.20;;;;;;5082881;28;19965;-68
2022/01/27 12:37:18;;;;;;;;;;;22.20;43.30;;;;;;5082528;28;20265;-68
2022/01/27 12:39:48;;;;;;;;;;;22.30;43.50;;;;;;5084248;28;20384;-69
2022/01/27 12:42:16;;;;;;;;;;;22.30;43.70;;;;;;5080621;28;19947;-72
2022/01/27 12:44:54;;;;;;;;;;;22.20;43.80;;;;;;5083310;28;19947;-67
2022/01/27 12:47:19;;;;;;;;;;;22.30;43.90;;;;;;5072596;28;20355;-68
2022/01/27 12:49:47;;;;;;;;;;;22.30;44.00;;;;;;5087624;28;19912;-69
2022/01/27 12:52:17;;;;;;;;;;;22.30;44.20;;;;;;5086164;28;19966;-69
2022/01/27 12:54:43;;;;;;;;;;;22.30;44.30;;;;;;5084091;28;19920;-67
2022/01/27 12:57:09;;;;;;;;;;;22.30;44.30;;;;;;5080141;28;19911;-70
2022/01/27 12:59:44;;;;;;;;;;;22.30;44.40;;;;;;5080198;28;20291;-73
2022/01/27 13:02:11;;;;;;;;;;;22.30;44.50;;;;;;5082573;28;19912;-70
2022/01/27 13:04:37;;;;;;;;;;;22.30;44.70;;;;;;5082851;28;19920;-69
2022/01/27 13:07:03;;;;;;;;;;;22.30;44.90;;;;;;5082759;28;19920;-66
2022/01/27 13:09:30;;;;;;;;;;;22.30;45.00;;;;;;5085997;28;19955;-72
2022/01/27 13:11:58;;;;;;;;;;;22.40;45.00;;;;;;5080883;28;19912;-69
2022/01/27 13:14:24;;;;;;;;;;;22.30;45.00;;;;;;5080552;28;19916;-70
2022/01/27 13:17:06;;;;;;;;;;;22.40;45.10;;;;;;5086250;28;19941;-73
2022/01/27 13:19:37;;;;;;;;;;;22.40;45.20;;;;;;5084181;28;20018;-69
2022/01/27 13:22:06;;;;;;;;;;;22.40;45.20;;;;;;5083599;28;19920;-69
2022/01/27 13:24:34;;;;;;;;;;;22.40;45.30;;;;;;5081212;28;20003;-68
2022/01/27 13:27:07;;;;;;;;;;;22.40;45.50;;;;;;5082768;28;20576;-70
2022/01/27 13:29:39;;;;;;;;;;;22.40;45.50;;;;;;5076826;28;19976;-71
2022/01/27 13:32:06;;;;;;;;;;;22.40;45.50;;;;;;5085108;28;19924;-70
2022/01/27 13:34:32;;;;;;;;;;;22.40;45.50;;;;;;5083753;28;19916;-70
2022/01/27 13:36:58;;;;;;;;;;;22.40;45.60;;;;;;5086699;28;19927;-72
2022/01/27 13:42:10;;;;;;;;;;;22.40;45.80;;;;;;5059327;28;20348;-69
2022/01/27 13:44:49;;;;;;;;;;;22.40;45.80;;;;;;5083279;28;19912;-72
2022/01/27 13:47:15;;;;;;;;;;;22.40;46.00;;;;;;5081125;28;19916;-68
2022/01/27 13:49:40;;;;;;;;;;;22.40;46.10;;;;;;5084842;28;19916;-72
2022/01/27 13:52:07;;;;;;;;;;;22.40;46.00;;;;;;5076361;28;19948;-67
2022/01/27 13:54:46;;;;;;;;;;;22.40;46.00;;;;;;5083413;28;20026;-66
2022/01/27 13:57:13;;;;;;;;;;;22.40;46.00;;;;;;5076603;28;20663;-72
2022/01/27 13:59:47;;;;;;;;;;;22.40;46.10;;;;;;5080719;28;19916;-67
2022/01/27 14:02:25;;;;;;;;;;;22.50;46.20;;;;;;5078221;28;19920;-70
2022/01/27 14:04:58;;;;;;;;;;;22.50;46.10;;;;;;5080396;28;19916;-69
2022/01/27 14:07:33;;;;;;;;;;;22.50;46.00;;;;;;5081781;28;19962;-69
2022/01/27 14:10:12;;;;;;;;;;;22.50;46.00;;;;;;5083820;28;19930;-69
2022/01/27 14:12:44;;;;;;;;;;;22.50;45.90;;;;;;5079984;28;20330;-72
2022/01/27 14:15:25;;;;;;;;;;;22.50;45.90;;;;;;5075575;28;19927;-69
2022/01/27 14:17:55;;;;;;;;;;;22.50;45.90;;;;;;5091605;28;19923;-69
2022/01/27 14:20:20;;;;;;;;;;;22.50;45.90;;;;;;5080884;28;20356;-69
2022/01/27 14:22:51;;;;;;;;;;;22.50;46.00;;;;;;5082029;28;19920;-69
2022/01/27 14:25:22;;;;;;;;;;;22.50;46.00;;;;;;5075745;28;20035;-71
2022/01/27 14:27:47;;;;;;;;;;;22.50;46.10;;;;;;5074576;28;19916;-69
2022/01/27 14:30:16;;;;;;;;;;;22.50;46.20;;;;;;5081558;28;19923;-71
2022/01/27 14:32:42;;;;;;;;;;;22.50;46.20;;;;;;5076263;28;20016;-68
2022/01/27 14:35:09;;;;;;;;;;;22.50;46.10;;;;;;5077734;28;19959;-71
2022/01/27 14:37:35;;;;;;;;;;;22.50;46.00;;;;;;5082345;28;20323;-66
2022/01/27 14:40:04;;;;;;;;;;;22.60;46.10;;;;;;5083139;28;19916;-67
2022/01/27 14:42:29;;;;;;;;;;;22.50;46.10;;;;;;5078121;28;20018;-70
2022/01/27 14:44:55;;;;;;;;;;;22.60;46.10;;;;;;5078906;28;20023;-71
2022/01/27 14:47:20;;;;;;;;;;;22.60;46.10;;;;;;5076988;28;19924;-68
2022/01/27 14:49:50;;;;;;;;;;;22.50;46.10;;;;;;5082682;28;19920;-73
2022/01/27 14:52:20;;;;;;;;;;;22.60;46.10;;;;;;5078932;28;21663;-67
2022/01/27 14:54:45;;;;;;;;;;;22.60;46.10;;;;;;5080809;28;19996;-68
2022/01/27 14:57:11;;;;;;;;;;;22.60;46.10;;;;;;5077225;28;20569;-68
2022/01/27 14:59:36;;;;;;;;;;;22.60;46.10;;;;;;5081527;28;20015;-68
2022/01/27 15:02:02;;;;;;;;;;;22.60;46.10;;;;;;5082148;28;19924;-66